createdAt,value
2017-08-05T00:00:00.715Z,98269.81
2017-08-05T00:02:29.071Z,98264.67
2017-08-05T00:04:57.415Z,98270.14
2017-08-05T00:07:25.752Z,98267.55
2017-08-05T00:09:54.096Z,98266.98
2017-08-05T00:12:22.420Z,98272.29
2017-08-05T00:14:51.029Z,98268.88
2017-08-05T00:17:19.369Z,98269.88
2017-08-05T00:19:47.703Z,98260.05
2017-08-05T00:22:16.058Z,98266.83
2017-08-05T00:24:44.392Z,98261.52
2017-08-05T00:27:12.736Z,98260.25
2017-08-05T00:29:41.054Z,98258.66
2017-08-05T00:32:09.649Z,98256.05
2017-08-05T00:34:37.989Z,98251.83
2017-08-05T00:37:06.306Z,98249.71
2017-08-05T00:39:34.640Z,98246.41
2017-08-05T00:42:02.967Z,98247.49
2017-08-05T00:44:31.309Z,98243.03
2017-08-05T00:46:59.642Z,98239.02
2017-08-05T00:49:27.993Z,98243.09
2017-08-05T00:51:56.344Z,98239.72
2017-08-05T00:54:24.690Z,98238.23
2017-08-05T00:56:53.044Z,98237.59
2017-08-05T00:59:21.407Z,98235.92
2017-08-05T01:01:49.870Z,98227.08
2017-08-05T01:04:18.208Z,98226.17
2017-08-05T01:06:46.523Z,98233.44
2017-08-05T01:09:14.871Z,98232.28
2017-08-05T01:11:43.205Z,98229.73
2017-08-05T01:14:11.560Z,98227.84
2017-08-05T01:16:39.888Z,98224.53
2017-08-05T01:19:08.239Z,98223.64
2017-08-05T01:21:36.570Z,98219.87
2017-08-05T01:24:04.926Z,98216.36
2017-08-05T01:26:33.278Z,98217.02
2017-08-05T01:29:01.592Z,98223.52
2017-08-05T01:31:29.937Z,98217.94
2017-08-05T01:33:58.253Z,98220.08
2017-08-05T01:36:26.604Z,98221.35
2017-08-05T01:38:54.920Z,98212.05
2017-08-05T01:41:23.288Z,98213.31
2017-08-05T01:43:51.639Z,98211.19
2017-08-05T01:46:19.981Z,98210.98
2017-08-05T01:48:48.441Z,98204.92
2017-08-05T01:51:16.774Z,98198.88
2017-08-05T01:53:45.382Z,98207.12
2017-08-05T01:56:13.700Z,98200.20
2017-08-05T01:58:42.036Z,98200.34
2017-08-05T02:01:10.412Z,98200.51
2017-08-05T02:03:38.757Z,98202.24
2017-08-05T02:06:07.120Z,98210.98
2017-08-05T02:08:35.461Z,98205.95
2017-08-05T02:11:03.821Z,98201.16
2017-08-05T02:13:32.155Z,98205.85
2017-08-05T02:16:00.537Z,98201.72
2017-08-05T02:18:28.879Z,98203.26
2017-08-05T02:20:57.225Z,98204.67
2017-08-05T02:23:25.558Z,98200.96
2017-08-05T02:25:53.863Z,98205.78
2017-08-05T02:28:22.219Z,98208.38
2017-08-05T02:30:50.562Z,98201.07
2017-08-05T02:33:18.907Z,98203.91
2017-08-05T02:35:47.258Z,98200.75
2017-08-05T02:38:15.622Z,98193.89
2017-08-05T02:40:43.990Z,98191.96
2017-08-05T02:43:12.328Z,98187.02
2017-08-05T02:45:40.924Z,98191.55
2017-08-05T02:48:09.268Z,98186.63
2017-08-05T02:50:37.599Z,98189.52
2017-08-05T02:53:06.021Z,98187.90
2017-08-05T02:55:34.361Z,98182.92
2017-08-05T02:58:02.720Z,98175.00
2017-08-05T03:01:01.953Z,98173.67
2017-08-05T03:03:30.341Z,98183.99
2017-08-05T03:05:58.656Z,98188.27
2017-08-05T03:08:27.009Z,98182.61
2017-08-05T03:10:55.368Z,98176.09
2017-08-05T03:13:23.691Z,98170.76
2017-08-05T03:15:52.285Z,98178.99
2017-08-05T03:18:20.603Z,98182.05
2017-08-05T03:20:48.914Z,98171.66
2017-08-05T03:23:17.255Z,98175.33
2017-08-05T03:25:45.572Z,98177.83
2017-08-05T03:28:13.924Z,98176.97
2017-08-05T03:30:42.243Z,98177.57
2017-08-05T03:33:10.572Z,98167.81
2017-08-05T03:35:38.920Z,98170.61
2017-08-05T03:38:07.240Z,98170.30
2017-08-05T03:40:35.576Z,98164.09
2017-08-05T03:43:03.900Z,98162.72
2017-08-05T03:45:32.481Z,98158.60
2017-08-05T03:48:00.804Z,98166.90
2017-08-05T03:50:29.129Z,98167.65
2017-08-05T03:52:57.494Z,98169.67
2017-08-05T03:55:25.822Z,98171.13
2017-08-05T03:57:54.170Z,98167.25
2017-08-05T04:00:22.483Z,98162.03
2017-08-05T04:02:51.087Z,98158.64
2017-08-05T04:05:19.412Z,98153.09
2017-08-05T04:07:47.748Z,98155.33
2017-08-05T04:10:16.093Z,98152.34
2017-08-05T04:12:44.425Z,98148.44
2017-08-05T04:15:12.778Z,98148.08
2017-08-05T04:17:41.116Z,98140.86
2017-08-05T04:20:09.723Z,98148.79
2017-08-05T04:22:38.056Z,98145.44
2017-08-05T04:25:06.391Z,98149.66
2017-08-05T04:27:34.740Z,98153.14
2017-08-05T04:30:03.083Z,98140.73
2017-08-05T04:32:32.102Z,98147.39
2017-08-05T04:35:00.435Z,98144.66
2017-08-05T04:37:28.798Z,98145.74
2017-08-05T04:39:57.145Z,98149.75
2017-08-05T04:42:25.474Z,98144.57
2017-08-05T04:44:53.822Z,98144.02
2017-08-05T04:47:22.156Z,98140.16
2017-08-05T04:49:50.523Z,98136.89
2017-08-05T04:52:18.856Z,98137.10
2017-08-05T04:54:47.203Z,98135.38
2017-08-05T04:57:16.485Z,98138.77
2017-08-05T04:59:44.812Z,98134.73
2017-08-05T05:02:13.163Z,98137.00
2017-08-05T05:04:41.492Z,98140.09
2017-08-05T05:07:09.888Z,98141.54
2017-08-05T05:09:38.216Z,98143.55
2017-08-05T05:12:06.563Z,98135.90
2017-08-05T05:14:34.908Z,98125.69
2017-08-05T05:17:03.246Z,98126.72
2017-08-05T05:19:31.584Z,98125.80
2017-08-05T05:22:00.680Z,98118.53
2017-08-05T05:24:29.019Z,98110.95
2017-08-05T05:26:58.063Z,98108.66
2017-08-05T05:29:26.739Z,98098.16
2017-08-05T05:31:55.073Z,98093.14
2017-08-05T05:34:23.400Z,98094.89
2017-08-05T05:36:52.513Z,98097.48
2017-08-05T05:39:20.872Z,98096.02
2017-08-05T05:41:49.217Z,98095.41
2017-08-05T05:44:17.534Z,98094.23
2017-08-05T05:46:46.635Z,98107.69
2017-08-05T05:49:14.978Z,98104.39
2017-08-05T05:51:43.341Z,98101.30
2017-08-05T05:54:11.684Z,98099.52
2017-08-05T05:56:39.990Z,98103.18
2017-08-05T05:59:08.756Z,98094.05
2017-08-05T06:01:37.095Z,98093.17
2017-08-05T06:04:05.898Z,98102.14
2017-08-05T06:06:34.220Z,98103.69
2017-08-05T06:09:02.558Z,98102.13
2017-08-05T06:11:31.673Z,98097.17
2017-08-05T06:14:00.009Z,98090.53
2017-08-05T06:16:28.342Z,98091.57
2017-08-05T06:18:56.672Z,98095.14
2017-08-05T06:21:25.023Z,98088.69
2017-08-05T06:23:53.378Z,98081.19
2017-08-05T06:26:22.347Z,98081.63
2017-08-05T06:28:50.679Z,98084.36
2017-08-05T06:31:19.025Z,98083.09
2017-08-05T06:33:47.368Z,98077.20
2017-08-05T06:36:15.697Z,98071.13
2017-08-05T06:38:44.056Z,98075.08
2017-08-05T06:41:12.419Z,98076.19
2017-08-05T06:43:41.536Z,98071.62
2017-08-05T06:46:09.892Z,98072.20
2017-08-05T06:48:38.232Z,98075.22
2017-08-05T06:51:06.576Z,98076.27
2017-08-05T06:53:34.908Z,98069.36
2017-08-05T06:56:03.740Z,98073.73
2017-08-05T06:58:32.072Z,98075.28
2017-08-05T07:01:00.428Z,98082.47
2017-08-05T07:03:28.788Z,98079.22
2017-08-05T07:05:57.327Z,98084.42
2017-08-05T07:08:25.686Z,98086.75
2017-08-05T07:10:54.018Z,98089.44
2017-08-05T07:13:22.700Z,98102.59
2017-08-05T07:15:51.042Z,98092.28
2017-08-05T07:18:19.376Z,98097.57
2017-08-05T07:20:47.733Z,98098.28
2017-08-05T07:23:16.816Z,98087.66
2017-08-05T07:25:45.153Z,98078.48
2017-08-05T07:28:13.485Z,98080.61
2017-08-05T07:30:42.649Z,98085.59
2017-08-05T07:33:10.977Z,98086.09
2017-08-05T07:35:39.313Z,98079.44
2017-08-05T07:38:07.668Z,98072.63
2017-08-05T07:40:35.999Z,98071.80
2017-08-05T07:43:05.128Z,98066.80
2017-08-05T07:45:33.471Z,98052.77
2017-08-05T07:48:02.173Z,98055.28
2017-08-05T07:50:30.505Z,98045.13
2017-08-05T07:55:34.721Z,98056.08
2017-08-05T07:58:03.098Z,98047.53
2017-08-05T08:00:31.824Z,98059.31
2017-08-05T08:03:00.180Z,98058.98
2017-08-05T08:05:28.499Z,98051.69
2017-08-05T08:07:56.890Z,98046.30
2017-08-05T08:10:25.232Z,98045.50
2017-08-05T08:12:53.584Z,98043.28
2017-08-05T08:15:21.912Z,98037.91
2017-08-05T08:17:50.500Z,98053.16
2017-08-05T08:20:18.827Z,98034.23
2017-08-05T08:22:47.178Z,98032.66
2017-08-05T08:25:15.534Z,98038.78
2017-08-05T08:27:43.861Z,98036.55
2017-08-05T08:30:12.212Z,98040.83
2017-08-05T08:32:41.310Z,98042.97
2017-08-05T08:35:10.000Z,98045.76
2017-08-05T08:37:38.326Z,98051.33
2017-08-05T08:40:06.653Z,98066.27
2017-08-05T08:42:35.764Z,98071.59
2017-08-05T08:45:04.090Z,98077.94
2017-08-05T08:47:32.422Z,98074.14
2017-08-05T08:50:00.764Z,98077.38
2017-08-05T08:52:29.140Z,98075.27
2017-08-05T08:54:57.479Z,98066.80
2017-08-05T08:57:25.836Z,98074.95
2017-08-05T08:59:54.183Z,98077.84
2017-08-05T09:02:22.525Z,98086.41
2017-08-05T09:04:50.868Z,98078.66
2017-08-05T09:07:19.201Z,98078.53
2017-08-05T09:09:47.971Z,98074.70
2017-08-05T09:12:16.352Z,98086.57
2017-08-05T09:14:44.705Z,98086.86
2017-08-05T09:17:13.051Z,98086.85
2017-08-05T09:19:41.382Z,98081.20
2017-08-05T09:22:09.755Z,98077.94
2017-08-05T09:24:38.077Z,98081.29
2017-08-05T09:27:06.892Z,98084.76
2017-08-05T09:29:35.235Z,98082.53
2017-08-05T09:32:03.580Z,98090.41
2017-08-05T09:34:31.916Z,98093.72
2017-08-05T09:37:00.257Z,98086.91
2017-08-05T09:39:28.613Z,98089.41
2017-08-05T09:41:56.944Z,98087.14
2017-08-05T09:44:25.291Z,98079.03
2017-08-05T09:46:53.654Z,98081.45
2017-08-05T09:49:21.983Z,98091.05
2017-08-05T09:51:50.320Z,98096.88
2017-08-05T09:54:18.646Z,98096.88
2017-08-05T09:56:47.021Z,98091.30
2017-08-05T09:59:15.363Z,98098.92
2017-08-05T10:01:43.709Z,98103.98
2017-08-05T10:04:12.039Z,98105.19
2017-08-05T10:06:40.376Z,98103.45
2017-08-05T10:09:08.734Z,98097.31
2017-08-05T10:11:37.081Z,98088.42
2017-08-05T10:14:05.431Z,98086.28
2017-08-05T10:16:33.818Z,98080.95
2017-08-05T10:19:02.576Z,98085.27
2017-08-05T10:21:30.919Z,98090.59
2017-08-05T10:23:59.245Z,98076.48
2017-08-05T10:26:27.613Z,98081.36
2017-08-05T10:28:55.943Z,98085.20
2017-08-05T10:31:24.289Z,98085.88
2017-08-05T10:33:52.605Z,98090.17
2017-08-05T10:36:21.235Z,98096.99
2017-08-05T10:38:49.573Z,98099.14
2017-08-05T10:41:17.900Z,98077.38
2017-08-05T10:43:46.257Z,98069.27
2017-08-05T10:46:14.586Z,98067.11
2017-08-05T10:48:42.939Z,98063.65
2017-08-05T10:51:11.699Z,98066.59
2017-08-05T10:53:40.487Z,98059.77
2017-08-05T10:56:08.864Z,98056.15
2017-08-05T10:58:37.196Z,98060.83
2017-08-05T11:01:05.545Z,98065.50
2017-08-05T11:03:34.646Z,98053.98
2017-08-05T11:06:02.994Z,98055.13
2017-08-05T11:08:31.340Z,98060.83
2017-08-05T11:11:00.098Z,98066.39
2017-08-05T11:13:28.549Z,98056.47
2017-08-05T11:15:56.889Z,98051.56
2017-08-05T11:18:25.238Z,98044.80
2017-08-05T11:20:53.571Z,98043.31
2017-08-05T11:23:21.933Z,98035.44
2017-08-05T11:25:50.246Z,98043.07
2017-08-05T11:28:19.084Z,98040.51
2017-08-05T11:30:47.400Z,98045.97
2017-08-05T11:33:15.741Z,98049.56
2017-08-05T11:35:44.132Z,98050.96
2017-08-05T11:38:12.461Z,98054.09
2017-08-05T11:40:40.847Z,98055.81
2017-08-05T11:43:09.971Z,98054.31
2017-08-05T11:45:38.644Z,98058.27
2017-08-05T11:48:06.981Z,98060.33
2017-08-05T11:50:35.318Z,98070.58
2017-08-05T11:53:03.647Z,98073.80
2017-08-05T11:55:31.978Z,98080.09
2017-08-05T11:58:00.341Z,98079.84
2017-08-05T12:00:28.697Z,98081.10
2017-08-05T12:02:57.025Z,98080.92
2017-08-05T12:05:25.374Z,98080.03
2017-08-05T12:07:54.726Z,98090.80
2017-08-05T12:10:23.084Z,98101.05
2017-08-05T12:12:51.416Z,98085.58
2017-08-05T12:15:20.121Z,98090.93
2017-08-05T12:17:48.462Z,98090.66
2017-08-05T12:20:17.910Z,98088.78
2017-08-05T12:22:46.257Z,98103.99
2017-08-05T12:25:14.593Z,98111.14
2017-08-05T12:27:42.932Z,98099.36
2017-08-05T12:30:11.342Z,98102.52
2017-08-05T12:32:39.692Z,98099.01
2017-08-05T12:35:08.032Z,98099.91
2017-08-05T12:37:36.382Z,98098.07
2017-08-05T12:40:04.739Z,98105.47
2017-08-05T12:42:33.851Z,98109.86
2017-08-05T12:45:02.205Z,98107.95
2017-08-05T12:47:30.535Z,98114.44
2017-08-05T12:49:59.288Z,98114.95
2017-08-05T12:52:27.610Z,98115.91
2017-08-05T12:54:55.962Z,98124.88
2017-08-05T12:57:24.295Z,98111.19
2017-08-05T12:59:52.605Z,98134.59
2017-08-05T13:02:20.953Z,98132.00
2017-08-05T13:04:49.283Z,98127.93
2017-08-05T13:07:17.642Z,98135.00
2017-08-05T13:09:46.011Z,98135.51
2017-08-05T13:12:14.388Z,98129.32
2017-08-05T13:14:42.718Z,98136.18
2017-08-05T13:17:11.031Z,98129.32
2017-08-05T13:19:39.463Z,98129.80
2017-08-05T13:22:07.828Z,98130.17
2017-08-05T13:24:36.203Z,98132.75
2017-08-05T13:27:11.815Z,98134.12
2017-08-05T13:29:47.083Z,98147.19
2017-08-05T13:32:16.050Z,98150.95
2017-08-05T13:34:44.798Z,98164.51
2017-08-05T13:37:13.651Z,98164.86
2017-08-05T13:39:47.850Z,98174.80
2017-08-05T13:42:16.469Z,98179.73
2017-08-05T13:44:46.659Z,98176.62
2017-08-05T13:47:15.893Z,98181.38
2017-08-05T13:49:44.256Z,98185.73
2017-08-05T13:52:12.630Z,98187.75
2017-08-05T13:54:40.981Z,98184.56
2017-08-05T13:57:09.734Z,98190.59
2017-08-05T13:59:38.077Z,98199.72
2017-08-05T14:02:06.419Z,98209.27
2017-08-05T14:04:35.169Z,98214.32
2017-08-05T14:07:04.273Z,98210.64
2017-08-05T14:09:32.604Z,98200.36
2017-08-05T14:12:01.348Z,98199.27
2017-08-05T14:14:32.744Z,98199.27
2017-08-05T14:17:01.451Z,98194.60
2017-08-05T14:19:29.780Z,98199.65
2017-08-05T14:21:58.142Z,98211.61
2017-08-05T14:24:26.543Z,98207.14
2017-08-05T14:26:54.867Z,98211.80
2017-08-05T14:29:23.228Z,98213.79
2017-08-05T14:31:51.576Z,98221.28
2017-08-05T14:34:20.172Z,98207.81
2017-08-05T14:36:48.506Z,98209.31
2017-08-05T14:39:17.144Z,98216.55
2017-08-05T14:41:45.485Z,98223.41
2017-08-05T14:44:13.876Z,98215.88
2017-08-05T14:46:42.236Z,98231.17
2017-08-05T14:49:11.352Z,98233.59
2017-08-05T14:51:39.694Z,98239.44
2017-08-05T14:54:08.041Z,98240.75
2017-08-05T14:56:36.360Z,98240.10
2017-08-05T14:59:05.470Z,98253.67
2017-08-05T15:01:33.810Z,98245.20
2017-08-05T15:04:02.167Z,98254.44
2017-08-05T15:06:30.541Z,98251.81
2017-08-05T15:08:58.865Z,98246.97
2017-08-05T15:11:27.202Z,98241.39
2017-08-05T15:13:55.944Z,98242.98
2017-08-05T15:16:25.055Z,98252.34
2017-08-05T15:18:53.387Z,98257.91
2017-08-05T15:21:22.118Z,98274.00
2017-08-05T15:23:50.440Z,98268.53
2017-08-05T15:26:19.670Z,98275.31
2017-08-05T15:28:48.000Z,98282.03
2017-08-05T15:31:16.319Z,98282.19
2017-08-05T15:33:44.678Z,98286.89
2017-08-05T15:36:12.995Z,98295.61
2017-08-05T15:38:41.369Z,98300.97
2017-08-05T15:41:09.719Z,98298.41
2017-08-05T15:43:38.039Z,98303.58
2017-08-05T15:46:07.143Z,98299.55
2017-08-05T15:48:35.469Z,98301.93
2017-08-05T15:51:04.547Z,98309.97
2017-08-05T15:53:32.881Z,98315.23
2017-08-05T15:56:01.240Z,98307.20
2017-08-05T15:58:29.593Z,98315.50
2017-08-05T16:00:57.951Z,98322.46
2017-08-05T16:03:26.331Z,98317.13
2017-08-05T16:05:54.661Z,98316.97
2017-08-05T16:08:23.400Z,98310.25
2017-08-05T16:10:51.725Z,98306.52
2017-08-05T16:13:20.549Z,98315.75
2017-08-05T16:15:48.894Z,98309.07
2017-08-05T16:18:17.218Z,98307.34
2017-08-05T16:20:46.337Z,98311.08
2017-08-05T16:23:14.656Z,98307.97
2017-08-05T16:25:43.044Z,98317.83
2017-08-05T16:28:11.387Z,98311.70
2017-08-05T16:30:40.007Z,98317.06
2017-08-05T16:33:08.344Z,98329.25
2017-08-05T16:35:37.103Z,98325.33
2017-08-05T16:38:06.863Z,98326.67
2017-08-05T16:40:35.265Z,98317.77
2017-08-05T16:43:03.608Z,98317.24
2017-08-05T16:45:31.932Z,98325.19
2017-08-05T16:48:00.286Z,98331.08
2017-08-05T16:50:28.607Z,98328.91
2017-08-05T16:52:57.709Z,98328.54
2017-08-05T16:55:26.056Z,98323.48
2017-08-05T16:57:54.405Z,98317.09
2017-08-05T17:00:22.801Z,98320.59
2017-08-05T17:02:51.135Z,98323.16
2017-08-05T17:05:19.498Z,98325.25
2017-08-05T17:07:48.612Z,98323.27
2017-08-05T17:10:16.973Z,98330.99
2017-08-05T17:12:45.331Z,98327.66
2017-08-05T17:15:13.668Z,98346.47
2017-08-05T17:17:42.014Z,98340.35
2017-08-05T17:20:11.134Z,98341.00
2017-08-05T17:22:39.484Z,98350.70
2017-08-05T17:25:07.846Z,98351.35
2017-08-05T17:27:36.192Z,98349.40
2017-08-05T17:30:04.617Z,98353.66
2017-08-05T17:32:32.951Z,98356.44
2017-08-05T17:35:01.319Z,98348.28
2017-08-05T17:37:29.692Z,98347.87
2017-08-05T17:39:58.477Z,98349.69
2017-08-05T17:42:26.806Z,98344.48
2017-08-05T17:44:55.144Z,98361.66
2017-08-05T17:47:23.492Z,98364.33
2017-08-05T17:49:52.605Z,98365.61
2017-08-05T17:52:21.993Z,98366.98
2017-08-05T17:54:50.326Z,98368.61
2017-08-05T17:57:18.749Z,98369.01
2017-08-05T17:59:47.086Z,98377.44
2017-08-05T18:02:15.421Z,98388.09
2017-08-05T18:04:43.772Z,98387.11
2017-08-05T18:07:12.115Z,98394.48
2017-08-05T18:09:40.471Z,98393.92
2017-08-05T18:12:08.831Z,98397.80
2017-08-05T18:14:38.895Z,98394.77
2017-08-05T18:17:07.245Z,98391.91
2017-08-05T18:19:45.547Z,98399.55
2017-08-05T18:22:13.890Z,98410.24
2017-08-05T18:24:42.240Z,98411.12
2017-08-05T18:27:10.607Z,98409.41
2017-08-05T18:29:38.962Z,98420.75
2017-08-05T18:32:07.670Z,98418.72
2017-08-05T18:34:36.714Z,98423.71
2017-08-05T18:37:05.047Z,98425.09
2017-08-05T18:39:33.392Z,98421.40
2017-08-05T18:42:01.711Z,98431.22
2017-08-05T18:44:30.104Z,98433.89
2017-08-05T18:46:58.476Z,98435.20
2017-08-05T18:49:26.843Z,98434.56
2017-08-05T18:51:55.200Z,98445.68
2017-08-05T18:54:25.704Z,98443.47
2017-08-05T18:56:54.919Z,98442.77
2017-08-05T18:59:23.239Z,98441.33
2017-08-05T19:01:51.619Z,98440.61
2017-08-05T19:04:19.961Z,98444.38
2017-08-05T19:06:48.313Z,98448.61
2017-08-05T19:09:16.640Z,98458.50
2017-08-05T19:11:44.999Z,98466.80
2017-08-05T19:14:13.350Z,98464.93
2017-08-05T19:16:49.440Z,98468.77
2017-08-05T19:19:19.504Z,98471.16
2017-08-05T19:21:47.833Z,98485.52
2017-08-05T19:24:17.465Z,98486.73
2017-08-05T19:26:47.543Z,98497.55
2017-08-05T19:29:16.286Z,98501.46
2017-08-05T19:31:44.634Z,98506.59
2017-08-05T19:34:13.663Z,98511.87
2017-08-05T19:36:42.917Z,98524.63
2017-08-05T19:39:12.259Z,98514.92
2017-08-05T19:41:40.608Z,98505.45
2017-08-05T19:44:08.951Z,98516.08
2017-08-05T19:46:37.704Z,98523.37
2017-08-05T19:49:06.116Z,98527.05
2017-08-05T19:51:34.456Z,98528.36
2017-08-05T19:54:03.853Z,98529.51
2017-08-05T19:56:32.188Z,98533.75
2017-08-05T19:59:00.526Z,98533.64
2017-08-05T20:01:28.874Z,98542.49
2017-08-05T20:03:57.186Z,98544.86
2017-08-05T20:06:26.001Z,98552.77
2017-08-05T20:08:54.394Z,98547.11
2017-08-05T20:11:23.097Z,98557.04
2017-08-05T20:13:51.442Z,98551.92
2017-08-05T20:16:19.783Z,98554.97
2017-08-05T20:18:48.909Z,98564.12
2017-08-05T20:21:17.258Z,98569.38
2017-08-05T20:23:45.618Z,98568.16
2017-08-05T20:26:13.938Z,98568.52
2017-08-05T20:28:42.718Z,98575.48
2017-08-05T20:31:11.042Z,98577.45
2017-08-05T20:33:39.369Z,98567.45
2017-08-05T20:36:09.251Z,98579.16
2017-08-05T20:38:37.987Z,98572.81
2017-08-05T20:41:07.113Z,98582.26
2017-08-05T20:43:35.446Z,98588.52
2017-08-05T20:46:04.099Z,98591.17
2017-08-05T20:48:32.428Z,98586.22
2017-08-05T20:51:00.745Z,98596.94
2017-08-05T20:53:29.083Z,98592.97
2017-08-05T20:55:57.421Z,98597.28
2017-08-05T20:58:25.836Z,98595.04
2017-08-05T21:00:54.165Z,98592.77
2017-08-05T21:03:22.513Z,98593.66
2017-08-05T21:05:50.855Z,98585.42
2017-08-05T21:08:19.204Z,98596.99
2017-08-05T21:10:47.563Z,98594.84
2017-08-05T21:13:15.919Z,98598.41
2017-08-05T21:15:44.287Z,98601.56
2017-08-05T21:18:13.402Z,98601.20
2017-08-05T21:20:41.755Z,98600.79
2017-08-05T21:23:10.114Z,98602.83
2017-08-05T21:25:38.463Z,98597.95
2017-08-05T21:28:06.815Z,98605.43
2017-08-05T21:30:35.145Z,98608.48
2017-08-05T21:33:04.571Z,98613.61
2017-08-05T21:35:33.261Z,98614.75
2017-08-05T21:38:02.099Z,98623.84
2017-08-05T21:40:30.972Z,98629.16
2017-08-05T21:42:59.703Z,98628.23
2017-08-05T21:45:28.616Z,98630.61
2017-08-05T21:47:57.607Z,98630.69
2017-08-05T21:50:27.333Z,98630.28
2017-08-05T21:52:56.163Z,98629.59
2017-08-05T21:55:24.487Z,98632.78
2017-08-05T21:57:52.846Z,98629.09
2017-08-05T22:00:21.585Z,98636.48
2017-08-05T22:02:50.682Z,98632.75
2017-08-05T22:05:19.020Z,98632.75
2017-08-05T22:07:47.765Z,98636.24
2017-08-05T22:10:16.096Z,98638.67
2017-08-05T22:12:44.429Z,98636.20
2017-08-05T22:15:12.804Z,98643.77
2017-08-05T22:17:41.124Z,98640.70
2017-08-05T22:20:10.182Z,98647.89
2017-08-05T22:22:38.519Z,98656.10
2017-08-05T22:25:07.334Z,98654.58
2017-08-05T22:27:35.668Z,98657.96
2017-08-05T22:30:04.029Z,98654.20
2017-08-05T22:32:32.380Z,98659.53
2017-08-05T22:35:01.479Z,98658.59
2017-08-05T22:37:29.873Z,98659.20
2017-08-05T22:39:58.205Z,98651.89
2017-08-05T22:42:26.561Z,98666.89
2017-08-05T22:44:54.892Z,98663.25
2017-08-05T22:47:24.853Z,98660.79
2017-08-05T22:49:53.216Z,98664.58
2017-08-05T22:52:21.586Z,98660.22
2017-08-05T22:54:49.946Z,98667.74
2017-08-05T22:57:19.045Z,98665.91
2017-08-05T22:59:47.374Z,98670.27
2017-08-05T23:02:15.736Z,98670.94
2017-08-05T23:04:44.071Z,98673.78
2017-08-05T23:07:13.174Z,98669.28
2017-08-05T23:09:41.506Z,98670.17
2017-08-05T23:12:10.286Z,98670.89
2017-08-05T23:14:38.615Z,98672.72
2017-08-05T23:17:06.947Z,98675.45
2017-08-05T23:19:35.692Z,98667.48
2017-08-05T23:22:04.044Z,98671.10
2017-08-05T23:24:32.397Z,98676.22
2017-08-05T23:27:00.754Z,98673.09
2017-08-05T23:29:29.116Z,98676.39
2017-08-05T23:31:58.221Z,98678.58
2017-08-05T23:34:26.561Z,98689.87
2017-08-05T23:36:54.904Z,98685.52
2017-08-05T23:39:23.229Z,98685.30
2017-08-05T23:41:51.578Z,98693.55
2017-08-05T23:44:19.925Z,98683.52
2017-08-05T23:46:48.704Z,98696.31
2017-08-05T23:49:17.054Z,98688.12
2017-08-05T23:51:45.377Z,98691.36
2017-08-05T23:54:13.735Z,98693.38
2017-08-05T23:56:42.046Z,98692.65
2017-08-05T23:59:10.381Z,98691.43
